createdAt,value
2022-11-05T00:00:46.685Z,2.90
2022-11-05T00:03:32.722Z,2.80
2022-11-05T00:06:18.778Z,2.80
2022-11-05T00:09:04.884Z,3.03
2022-11-05T00:11:50.601Z,2.97
2022-11-05T00:14:36.606Z,2.87
2022-11-05T00:17:04.005Z,3.00
2022-11-05T00:19:30.937Z,2.77
2022-11-05T00:22:16.671Z,2.93
2022-11-05T00:25:02.493Z,2.90
2022-11-05T00:27:33.857Z,3.00
2022-11-05T00:30:05.007Z,2.90
2022-11-05T00:32:32.857Z,3.03
2022-11-05T00:35:00.459Z,2.90
2022-11-05T00:37:28.481Z,3.10
2022-11-05T00:39:55.898Z,3.10
2022-11-05T00:42:41.885Z,3.00
2022-11-05T00:45:09.744Z,3.03
2022-11-05T00:47:55.597Z,3.00
2022-11-05T00:50:23.231Z,3.00
2022-11-05T00:52:56.694Z,3.00
2022-11-05T00:55:35.400Z,2.90
2022-11-05T00:58:11.507Z,3.10
2022-11-05T01:00:49.178Z,3.00
2022-11-05T01:03:20.313Z,3.07
2022-11-05T01:05:59.479Z,2.97
2022-11-05T01:08:27.826Z,2.93
2022-11-05T01:10:59.003Z,3.00
2022-11-05T01:13:29.868Z,3.00
2022-11-05T01:15:57.491Z,3.10
2022-11-05T01:18:25.339Z,3.03
2022-11-05T01:20:53.023Z,2.90
2022-11-05T01:23:21.176Z,3.10
2022-11-05T01:25:48.823Z,3.03
2022-11-05T01:28:16.383Z,3.00
2022-11-05T01:30:56.922Z,2.90
2022-11-05T01:33:24.651Z,3.00
2022-11-05T01:35:51.729Z,2.87
2022-11-05T01:38:19.211Z,3.00
2022-11-05T01:40:46.575Z,2.90
2022-11-05T01:43:22.342Z,3.00
2022-11-05T01:45:55.233Z,3.10
2022-11-05T01:48:33.004Z,3.07
2022-11-05T01:51:09.006Z,3.00
2022-11-05T01:53:49.197Z,3.00
2022-11-05T01:56:36.579Z,3.10
2022-11-05T01:59:28.432Z,3.10
2022-11-05T02:01:58.345Z,3.07
2022-11-05T02:04:36.789Z,3.00
2022-11-05T02:07:07.379Z,3.10
2022-11-05T02:10:03.042Z,2.90
2022-11-05T02:12:32.471Z,2.97
2022-11-05T02:15:00.021Z,3.00
2022-11-05T02:18:44.956Z,2.93
2022-11-05T02:21:57.822Z,2.97
2022-11-05T02:25:12.716Z,2.97
2022-11-05T02:28:14.791Z,2.97
2022-11-05T02:31:17.116Z,3.20
2022-11-05T02:34:13.976Z,3.07
2022-11-05T02:37:18.886Z,3.17
2022-11-05T02:40:05.111Z,3.10
2022-11-05T02:43:03.285Z,3.07
2022-11-05T02:45:57.396Z,3.10
2022-11-05T02:49:30.865Z,3.00
2022-11-05T02:52:06.745Z,3.00
2022-11-05T02:54:47.307Z,3.00
2022-11-05T02:57:14.769Z,2.90
2022-11-05T02:59:42.168Z,3.00
2022-11-05T03:02:09.687Z,3.10
2022-11-05T03:04:36.917Z,2.90
2022-11-05T03:07:32.870Z,3.03
2022-11-05T03:10:36.375Z,3.10
2022-11-05T03:13:47.691Z,2.90
2022-11-05T03:16:34.991Z,2.90
2022-11-05T03:19:28.369Z,3.00
2022-11-05T03:22:09.381Z,2.90
2022-11-05T03:24:47.553Z,3.03
2022-11-05T03:27:26.421Z,3.00
2022-11-05T03:30:07.853Z,3.00
2022-11-05T03:32:41.150Z,3.00
2022-11-05T03:35:23.005Z,2.83
2022-11-05T03:38:00.501Z,3.00
2022-11-05T03:40:35.105Z,3.00
2022-11-05T03:43:09.046Z,2.90
2022-11-05T03:45:52.595Z,3.00
2022-11-05T03:48:25.789Z,2.97
2022-11-05T03:50:55.434Z,3.10
2022-11-05T03:53:32.433Z,3.00
2022-11-05T03:56:25.182Z,2.90
2022-11-05T03:58:58.697Z,3.03
2022-11-05T04:01:27.528Z,3.10
2022-11-05T04:03:54.682Z,3.13
2022-11-05T04:06:40.558Z,3.07
2022-11-05T04:09:27.805Z,3.00
2022-11-05T04:12:13.587Z,3.10
2022-11-05T04:14:41.053Z,3.00
2022-11-05T04:17:11.037Z,3.07
2022-11-05T04:20:03.445Z,3.20
2022-11-05T04:22:53.150Z,3.17
2022-11-05T04:25:22.040Z,3.07
2022-11-05T04:27:49.143Z,3.27
2022-11-05T04:30:19.401Z,3.10
2022-11-05T04:33:13.261Z,3.10
2022-11-05T04:35:48.098Z,2.97
2022-11-05T04:38:19.153Z,3.20
2022-11-05T04:40:47.989Z,3.30
2022-11-05T04:43:19.160Z,3.00
2022-11-05T04:45:46.589Z,3.20
2022-11-05T04:48:13.973Z,3.13
2022-11-05T04:50:41.456Z,2.97
2022-11-05T04:53:09.146Z,3.00
2022-11-05T04:55:36.420Z,3.10
2022-11-05T04:58:04.533Z,3.00
2022-11-05T05:00:32.074Z,3.23
2022-11-05T05:02:59.550Z,3.20
2022-11-05T05:05:26.584Z,3.07
2022-11-05T05:07:54.030Z,2.97
2022-11-05T05:10:21.451Z,3.10
2022-11-05T05:12:48.844Z,3.13
2022-11-05T05:15:16.255Z,3.00
2022-11-05T05:17:43.191Z,3.20
2022-11-05T05:20:28.855Z,3.00
2022-11-05T05:22:56.455Z,2.90
2022-11-05T05:25:24.172Z,3.00
2022-11-05T05:27:51.487Z,2.97
2022-11-05T05:30:18.792Z,3.03
2022-11-05T05:32:46.355Z,3.03
2022-11-05T05:35:13.770Z,3.00
2022-11-05T05:37:41.204Z,2.90
2022-11-05T05:40:09.618Z,3.00
2022-11-05T05:42:42.731Z,3.00
2022-11-05T05:45:12.203Z,3.00
2022-11-05T05:47:39.153Z,2.97
2022-11-05T05:50:06.511Z,2.93
2022-11-05T05:52:33.435Z,3.00
2022-11-05T05:55:00.947Z,3.03
2022-11-05T05:57:27.912Z,3.00
2022-11-05T05:59:55.281Z,2.97
2022-11-05T06:02:22.822Z,3.10
2022-11-05T06:04:50.010Z,3.03
2022-11-05T06:07:17.403Z,3.00
2022-11-05T06:09:44.352Z,3.03
2022-11-05T06:12:11.282Z,3.27
2022-11-05T06:14:38.264Z,2.90
2022-11-05T06:17:07.948Z,2.97
2022-11-05T06:19:35.460Z,2.93
2022-11-05T06:22:02.831Z,3.10
2022-11-05T06:24:30.237Z,2.87
2022-11-05T06:26:57.599Z,2.90
2022-11-05T06:29:24.561Z,3.00
2022-11-05T06:31:51.933Z,2.97
2022-11-05T06:34:19.334Z,3.00
2022-11-05T06:36:46.687Z,2.97
2022-11-05T06:39:14.151Z,3.03
2022-11-05T06:44:28.967Z,2.90
2022-11-05T06:46:56.319Z,3.10
2022-11-05T06:49:24.619Z,3.03
2022-11-05T06:51:52.820Z,2.97
2022-11-05T06:54:20.268Z,3.00
2022-11-05T06:56:47.245Z,2.83
2022-11-05T06:59:14.728Z,3.10
2022-11-05T07:01:41.816Z,3.07
2022-11-05T07:04:11.805Z,3.07
2022-11-05T07:06:38.866Z,2.93
2022-11-05T07:09:06.240Z,3.07
2022-11-05T07:11:33.196Z,2.80
2022-11-05T07:14:01.090Z,2.97
2022-11-05T07:16:28.458Z,3.10
2022-11-05T07:18:55.934Z,3.00
2022-11-05T07:21:23.305Z,3.00
2022-11-05T07:23:50.789Z,3.10
2022-11-05T07:26:17.736Z,3.17
2022-11-05T07:28:45.292Z,3.00
2022-11-05T07:31:12.229Z,3.13
2022-11-05T07:33:39.650Z,3.10
2022-11-05T07:36:07.382Z,3.10
2022-11-05T07:38:34.758Z,3.10
2022-11-05T07:41:02.186Z,2.90
2022-11-05T07:43:29.589Z,3.30
2022-11-05T07:45:56.990Z,2.90
2022-11-05T07:48:24.442Z,2.93
2022-11-05T07:50:53.202Z,3.07
2022-11-05T07:53:21.082Z,2.90
2022-11-05T07:55:48.565Z,2.77
2022-11-05T07:58:15.945Z,3.20
2022-11-05T08:00:43.452Z,3.00
2022-11-05T08:03:19.233Z,2.80
2022-11-05T08:05:48.151Z,2.97
2022-11-05T08:08:18.918Z,2.87
2022-11-05T08:10:47.019Z,3.00
2022-11-05T08:13:16.038Z,2.90
2022-11-05T08:15:44.567Z,3.00
2022-11-05T08:18:16.730Z,2.80
2022-11-05T08:20:47.524Z,3.00
2022-11-05T08:23:15.348Z,2.80
2022-11-05T08:25:43.038Z,2.77
2022-11-05T08:28:13.971Z,3.00
2022-11-05T08:30:41.439Z,2.90
2022-11-05T08:33:13.735Z,2.87
2022-11-05T08:35:41.870Z,2.87
2022-11-05T08:38:13.820Z,2.90
2022-11-05T08:40:44.770Z,2.90
2022-11-05T08:43:14.476Z,2.90
2022-11-05T08:45:42.773Z,2.93
2022-11-05T08:48:16.871Z,3.10
2022-11-05T08:50:47.263Z,3.17
2022-11-05T08:53:15.309Z,3.00
2022-11-05T08:55:43.847Z,2.73
2022-11-05T08:58:16.779Z,2.90
2022-11-05T09:03:34.320Z,2.90
2022-11-05T09:06:01.908Z,2.80
2022-11-05T09:08:28.980Z,2.67
2022-11-05T09:10:56.021Z,2.70
2022-11-05T09:13:23.726Z,2.83
2022-11-05T09:15:51.498Z,2.67
2022-11-05T09:18:20.427Z,2.83
2022-11-05T09:20:48.235Z,3.00
2022-11-05T09:23:16.054Z,3.03
2022-11-05T09:25:44.104Z,3.00
2022-11-05T09:28:21.179Z,2.97
2022-11-05T09:30:53.011Z,2.80
2022-11-05T09:33:24.964Z,2.77
2022-11-05T09:35:53.408Z,2.90
2022-11-05T09:38:20.651Z,3.00
2022-11-05T09:41:14.935Z,2.83
2022-11-05T09:43:54.359Z,3.00
2022-11-05T09:46:29.028Z,2.83
2022-11-05T09:49:05.033Z,2.87
2022-11-05T09:51:33.107Z,2.80
2022-11-05T09:54:03.730Z,2.80
2022-11-05T09:56:37.420Z,2.83
2022-11-05T09:59:29.041Z,2.90
2022-11-05T10:02:13.131Z,2.80
2022-11-05T10:04:43.739Z,2.90
2022-11-05T10:07:21.785Z,2.90
2022-11-05T10:10:00.860Z,2.90
2022-11-05T10:12:51.665Z,3.00
2022-11-05T10:15:31.396Z,2.83
2022-11-05T10:18:40.136Z,2.77
2022-11-05T10:21:15.636Z,2.77
2022-11-05T10:23:47.280Z,2.73
2022-11-05T10:26:26.841Z,2.80
2022-11-05T10:28:55.639Z,2.90
2022-11-05T10:31:23.637Z,2.80
2022-11-05T10:34:04.400Z,2.67
2022-11-05T10:36:38.255Z,2.80
2022-11-05T10:39:18.536Z,2.80
2022-11-05T10:42:29.808Z,3.00
2022-11-05T10:45:59.569Z,3.20
2022-11-05T10:49:35.746Z,2.97
2022-11-05T10:52:30.881Z,2.97
2022-11-05T10:55:04.624Z,3.03
2022-11-05T10:57:41.037Z,2.80
2022-11-05T11:00:17.043Z,2.83
2022-11-05T11:03:05.492Z,2.83
2022-11-05T11:05:40.339Z,3.00
2022-11-05T11:08:13.364Z,2.80
2022-11-05T11:10:55.931Z,2.63
2022-11-05T11:14:03.738Z,2.73
2022-11-05T11:16:57.010Z,2.90
2022-11-05T11:19:30.564Z,2.83
2022-11-05T11:22:03.483Z,2.80
2022-11-05T11:24:44.128Z,2.80
2022-11-05T11:27:28.302Z,2.90
2022-11-05T11:30:01.206Z,2.90
2022-11-05T11:32:40.214Z,2.80
2022-11-05T11:35:22.467Z,2.90
2022-11-05T11:37:53.779Z,2.97
2022-11-05T11:40:30.483Z,3.07
2022-11-05T11:43:04.021Z,3.00
2022-11-05T11:45:50.064Z,3.10
2022-11-05T11:48:25.332Z,2.90
2022-11-05T11:50:52.583Z,2.93
2022-11-05T11:53:35.342Z,3.23
2022-11-05T11:56:20.793Z,3.20
2022-11-05T11:58:54.432Z,2.97
2022-11-05T12:01:59.382Z,2.40
2022-11-05T12:05:16.749Z,2.40
2022-11-05T12:07:59.320Z,2.50
2022-11-05T12:10:54.451Z,2.30
2022-11-05T12:13:27.083Z,2.30
2022-11-05T12:15:54.382Z,2.37
2022-11-05T12:19:07.785Z,2.40
2022-11-05T12:22:39.499Z,2.30
2022-11-05T12:25:27.100Z,2.30
2022-11-05T12:29:17.798Z,2.30
2022-11-05T12:32:25.145Z,2.30
2022-11-05T12:35:47.365Z,2.40
2022-11-05T12:38:59.362Z,2.40
2022-11-05T12:41:30.217Z,2.53
2022-11-05T12:44:31.648Z,2.43
2022-11-05T12:47:35.108Z,2.60
2022-11-05T12:50:47.860Z,2.50
2022-11-05T12:53:57.301Z,2.60
2022-11-05T12:56:39.481Z,2.60
2022-11-05T12:59:33.644Z,2.60
2022-11-05T13:02:39.832Z,2.60
2022-11-05T13:05:36.581Z,2.70
2022-11-05T13:08:13.393Z,2.63
2022-11-05T13:10:51.813Z,2.70
2022-11-05T13:13:38.153Z,2.90
2022-11-05T13:16:24.885Z,2.70
2022-11-05T13:19:13.856Z,2.90
2022-11-05T13:21:46.614Z,2.90
2022-11-05T13:24:38.762Z,2.77
2022-11-05T13:27:47.846Z,2.90
2022-11-05T13:30:29.654Z,2.90
2022-11-05T13:33:18.137Z,2.80
2022-11-05T13:36:31.321Z,2.73
2022-11-05T13:39:30.015Z,2.70
2022-11-05T13:42:49.950Z,2.70
2022-11-05T13:46:05.612Z,2.87
2022-11-05T13:49:18.601Z,2.73
2022-11-05T13:51:49.481Z,3.00
2022-11-05T13:54:55.636Z,2.93
2022-11-05T13:57:50.770Z,2.80
2022-11-05T14:00:28.433Z,2.93
2022-11-05T14:03:07.128Z,3.00
2022-11-05T14:05:40.221Z,3.00
2022-11-05T14:08:24.893Z,2.90
2022-11-05T14:11:20.584Z,3.00
2022-11-05T14:14:00.206Z,2.73
2022-11-05T14:16:51.747Z,2.90
2022-11-05T14:19:19.039Z,2.87
2022-11-05T14:21:58.343Z,2.87
2022-11-05T14:24:43.278Z,2.80
2022-11-05T14:27:13.511Z,2.80
2022-11-05T14:29:45.426Z,2.83
2022-11-05T14:32:18.763Z,2.73
2022-11-05T14:35:15.879Z,2.70
2022-11-05T14:37:55.920Z,2.70
2022-11-05T14:40:36.659Z,2.70
2022-11-05T14:43:19.408Z,2.70
2022-11-05T14:46:06.310Z,2.80
2022-11-05T14:48:46.238Z,2.80
2022-11-05T14:51:44.328Z,2.77
2022-11-05T14:54:42.903Z,2.97
2022-11-05T14:57:35.740Z,2.87
2022-11-05T15:00:04.862Z,2.90
2022-11-05T15:02:38.715Z,2.80
2022-11-05T15:05:51.131Z,2.90
2022-11-05T15:08:27.388Z,2.80
2022-11-05T15:11:30.396Z,2.93
2022-11-05T15:14:20.764Z,2.70
2022-11-05T15:17:08.147Z,2.93
2022-11-05T15:19:37.522Z,2.83
2022-11-05T15:22:21.800Z,2.90
2022-11-05T15:24:49.113Z,2.90
2022-11-05T15:27:52.616Z,2.90
2022-11-05T15:30:24.661Z,2.90
2022-11-05T15:32:52.556Z,3.00
2022-11-05T15:35:28.849Z,2.90
2022-11-05T15:38:02.111Z,3.00
2022-11-05T15:40:33.976Z,2.90
2022-11-05T15:43:21.413Z,3.00
2022-11-05T15:46:06.556Z,2.83
2022-11-05T15:48:36.064Z,2.97
2022-11-05T15:51:03.846Z,2.90
2022-11-05T15:54:28.522Z,2.90
2022-11-05T15:56:59.396Z,2.93
2022-11-05T15:59:29.871Z,2.93
2022-11-05T16:02:33.785Z,2.93
2022-11-05T16:05:11.614Z,2.90
2022-11-05T16:07:46.142Z,2.93
2022-11-05T16:10:31.631Z,3.03
2022-11-05T16:13:22.711Z,2.90
2022-11-05T16:16:01.357Z,2.90
2022-11-05T16:18:38.599Z,2.97
2022-11-05T16:21:18.706Z,2.90
2022-11-05T16:23:59.459Z,3.00
2022-11-05T16:29:48.652Z,2.90
2022-11-05T16:32:31.160Z,3.07
2022-11-05T16:35:04.101Z,2.87
2022-11-05T16:37:40.898Z,3.17
2022-11-05T16:40:20.713Z,3.00
2022-11-05T16:42:51.243Z,2.80
2022-11-05T16:45:23.865Z,2.90
2022-11-05T16:47:51.972Z,3.00
2022-11-05T16:50:31.222Z,3.20
2022-11-05T16:52:58.349Z,2.97
2022-11-05T16:55:25.341Z,3.03
2022-11-05T16:57:55.248Z,3.00
2022-11-05T17:00:24.491Z,2.93
2022-11-05T17:02:53.558Z,3.03
2022-11-05T17:05:30.722Z,3.00
2022-11-05T17:08:00.440Z,3.00
2022-11-05T17:10:27.857Z,3.00
2022-11-05T17:12:55.423Z,3.13
2022-11-05T17:15:33.474Z,2.90
2022-11-05T17:18:00.807Z,3.03
2022-11-05T17:20:47.182Z,3.20
2022-11-05T17:23:26.523Z,3.03
2022-11-05T17:26:01.426Z,3.10
2022-11-05T17:28:29.349Z,2.90
2022-11-05T17:31:01.387Z,3.00
2022-11-05T17:33:29.238Z,3.20
2022-11-05T17:35:56.835Z,2.97
2022-11-05T17:38:26.622Z,3.10
2022-11-05T17:40:53.723Z,2.90
2022-11-05T17:43:21.286Z,3.00
2022-11-05T17:45:51.860Z,3.10
2022-11-05T17:48:20.848Z,2.90
2022-11-05T17:50:50.300Z,3.07
2022-11-05T17:53:19.324Z,2.80
2022-11-05T17:55:47.668Z,2.90
2022-11-05T17:58:15.616Z,2.90
2022-11-05T18:00:44.545Z,2.87
2022-11-05T18:03:13.356Z,2.90
2022-11-05T18:05:42.063Z,3.13
2022-11-05T18:08:10.107Z,2.80
2022-11-05T18:10:39.848Z,3.13
2022-11-05T18:13:07.599Z,2.90
2022-11-05T18:15:37.837Z,3.10
2022-11-05T18:18:05.270Z,2.90
2022-11-05T18:20:33.039Z,3.00
2022-11-05T18:23:00.484Z,3.10
2022-11-05T18:25:27.449Z,2.83
2022-11-05T18:27:54.975Z,2.90
2022-11-05T18:30:21.991Z,2.87
2022-11-05T18:32:50.884Z,2.97
2022-11-05T18:35:17.957Z,2.97
2022-11-05T18:37:45.213Z,3.17
2022-11-05T18:40:12.963Z,2.83
2022-11-05T18:42:40.273Z,3.03
2022-11-05T18:45:08.921Z,2.90
2022-11-05T18:47:36.365Z,2.90
2022-11-05T18:50:05.952Z,3.00
2022-11-05T18:52:33.523Z,2.83
2022-11-05T18:55:00.558Z,2.90
2022-11-05T18:57:28.048Z,2.93
2022-11-05T18:59:55.101Z,2.90
2022-11-05T19:02:22.571Z,3.00
2022-11-05T19:05:13.947Z,2.80
2022-11-05T19:07:38.704Z,2.90
2022-11-05T19:10:06.859Z,3.00
2022-11-05T19:12:33.837Z,3.00
2022-11-05T19:15:02.841Z,2.90
2022-11-05T19:17:32.816Z,3.00
2022-11-05T19:19:59.953Z,3.00
2022-11-05T19:22:27.830Z,2.83
2022-11-05T19:24:54.800Z,2.87
2022-11-05T19:27:21.894Z,2.80
2022-11-05T19:29:49.361Z,2.93
2022-11-05T19:32:16.620Z,3.00
2022-11-05T19:34:43.770Z,3.00
2022-11-05T19:37:12.226Z,2.97
2022-11-05T19:39:41.008Z,2.90
2022-11-05T19:42:07.974Z,2.97
2022-11-05T19:44:35.467Z,2.97
2022-11-05T19:47:02.875Z,2.90
2022-11-05T19:49:30.271Z,2.90
2022-11-05T19:51:57.668Z,3.00
2022-11-05T19:54:25.050Z,3.00
2022-11-05T19:56:52.241Z,2.93
2022-11-05T19:59:19.627Z,2.90
2022-11-05T20:01:47.007Z,2.90
2022-11-05T20:04:14.487Z,3.00
2022-11-05T20:06:42.113Z,2.90
2022-11-05T20:09:22.036Z,2.90
2022-11-05T20:11:56.290Z,3.00
2022-11-05T20:14:25.753Z,3.00
2022-11-05T20:16:53.567Z,3.00
2022-11-05T20:19:22.809Z,3.00
2022-11-05T20:21:50.150Z,2.90
2022-11-05T20:24:24.905Z,2.90
2022-11-05T20:26:56.968Z,3.00
2022-11-05T20:29:30.534Z,2.90
2022-11-05T20:32:03.467Z,2.90
2022-11-05T20:34:32.382Z,2.70
2022-11-05T20:36:59.990Z,3.00
2022-11-05T20:39:27.287Z,3.03
2022-11-05T20:41:56.275Z,2.90
2022-11-05T20:44:23.546Z,2.90
2022-11-05T20:46:50.983Z,3.00
2022-11-05T20:49:22.549Z,2.97
2022-11-05T20:51:52.171Z,2.90
2022-11-05T20:54:19.126Z,3.00
2022-11-05T20:56:46.151Z,3.00
2022-11-05T20:59:13.075Z,2.90
2022-11-05T21:01:40.170Z,2.97
2022-11-05T21:04:07.623Z,2.90
2022-11-05T21:06:35.766Z,2.90
2022-11-05T21:09:03.791Z,2.90
2022-11-05T21:11:51.336Z,2.87
2022-11-05T21:14:18.793Z,2.90
2022-11-05T21:16:45.783Z,3.00
2022-11-05T21:19:12.767Z,3.10
2022-11-05T21:21:41.284Z,2.90
2022-11-05T21:24:08.667Z,3.00
2022-11-05T21:26:36.051Z,3.00
2022-11-05T21:29:03.435Z,2.93
2022-11-05T21:31:30.417Z,3.00
2022-11-05T21:33:57.385Z,3.03
2022-11-05T21:36:24.768Z,2.97
2022-11-05T21:38:52.179Z,3.07
2022-11-05T21:41:19.573Z,3.00
2022-11-05T21:43:46.660Z,2.90
2022-11-05T21:46:14.348Z,3.00
2022-11-05T21:48:41.749Z,3.00
2022-11-05T21:51:30.108Z,3.00
2022-11-05T21:54:15.708Z,2.87
2022-11-05T21:57:08.202Z,2.97
2022-11-05T21:59:51.531Z,3.00
2022-11-05T22:02:25.420Z,2.97
2022-11-05T22:04:57.076Z,3.07
2022-11-05T22:07:30.991Z,2.97
2022-11-05T22:09:58.216Z,3.00
2022-11-05T22:12:25.747Z,3.03
2022-11-05T22:14:53.316Z,3.13
2022-11-05T22:17:21.233Z,2.93
2022-11-05T22:19:48.304Z,3.10
2022-11-05T22:22:15.787Z,2.97
2022-11-05T22:24:44.536Z,3.00
2022-11-05T22:27:19.145Z,3.03
2022-11-05T22:29:46.612Z,3.00
2022-11-05T22:32:14.270Z,3.03
2022-11-05T22:34:41.824Z,3.00
2022-11-05T22:37:11.716Z,2.90
2022-11-05T22:39:38.785Z,2.97
2022-11-05T22:42:08.662Z,3.00
2022-11-05T22:44:37.315Z,2.90
2022-11-05T22:47:05.328Z,3.00
2022-11-05T22:49:33.026Z,3.03
2022-11-05T22:52:00.413Z,2.87
2022-11-05T22:54:27.890Z,2.93
2022-11-05T22:56:54.821Z,2.90
2022-11-05T22:59:22.329Z,3.07
2022-11-05T23:01:50.031Z,3.07
2022-11-05T23:04:17.413Z,3.20
2022-11-05T23:07:03.225Z,3.10
2022-11-05T23:09:54.129Z,3.10
2022-11-05T23:12:33.785Z,3.00
2022-11-05T23:15:05.553Z,3.17
2022-11-05T23:17:51.469Z,3.13
2022-11-05T23:20:42.425Z,3.20
2022-11-05T23:23:31.238Z,3.07
2022-11-05T23:26:20.362Z,2.90
2022-11-05T23:28:47.367Z,3.10
2022-11-05T23:31:33.173Z,3.10
2022-11-05T23:34:00.614Z,3.13
2022-11-05T23:36:46.514Z,3.13
2022-11-05T23:39:13.499Z,3.10
2022-11-05T23:41:59.450Z,3.13
2022-11-05T23:44:45.386Z,3.17
2022-11-05T23:47:32.074Z,3.10
2022-11-05T23:49:59.509Z,3.10
2022-11-05T23:52:26.462Z,3.20
2022-11-05T23:54:53.878Z,3.13
2022-11-05T23:57:21.425Z,3.13
2022-11-05T23:59:48.870Z,3.13
